Master — WCY6528 — position and weather

sailwx.info

Track history (hours):
 
Tides and Currents Weather Stations Pressure Air Temp Water Temp Dewpoint Dewpoint Depression Visibility Wind Speed Wind Dir Waves Ship Positions

Master

Owner: Crowley Marine Services, SEATTLE, WA. More information available from US FCC via Universal Licensing System and Coast Guard Vessel Documentation Center.

Last reported at 2018-Jan-22 15:00 UTC. Time now 2018-Jan-22 15:56 UTC.
Position N 33°45' W 118°13'.

Length 30 m; draft 5.3 m.

Type: Tug. MMSI: 366755010.

Date/timePositionNaut miles runAvg speedWind from/ knotsBaromVisibWave heightAir tempDewpointWater temp
2018-Jan-22 15:00N 33°45' W 118°13'0 1.0
2018-Jan-22 14:29N 33°45' W 118°12'0 0.2
2018-Jan-22 14:01N 33°45' W 118°12'1 0.0
2018-Jan-22 01:12N 33°45' W 118°13'0 0.0
2018-Jan-22 01:01N 33°45' W 118°13'1 2.6
2018-Jan-22 00:30N 33°45' W 118°14'0 0.0
2018-Jan-22 00:00N 33°45' W 118°14'2 4.1
2018-Jan-21 23:29N 33°44' W 118°12'1 1.7
2018-Jan-21 23:00N 33°44' W 118°11'32 0.8
2018-Jan-20 04:49N 33°16' W 117°51'3 9.5
2018-Jan-20 04:31N 33°14' W 117°49'5 9.3
2018-Jan-20 04:00N 33°10' W 117°46'5 9.2
2018-Jan-20 03:31N 33°07' W 117°43'5 9.1
2018-Jan-20 03:01N 33°03' W 117°40'5 9.2
2018-Jan-20 02:31N 32°59' W 117°37'5 9.2
2018-Jan-20 02:01N 32°55' W 117°34'5 9.2
2018-Jan-20 01:31N 32°51' W 117°31'5 9.2
2018-Jan-20 01:00N 32°47' W 117°27'4 9.1
2018-Jan-20 00:31N 32°44' W 117°24'13 0.4
2018-Jan-18 19:16N 32°42' W 117°09'0 0.0
2018-Jan-18 18:54N 32°42' W 117°09'0 0.0
2018-Jan-18 10:04N 32°42' W 117°09'0 0.0
2018-Jan-18 09:56N 32°42' W 117°09'0 0.0
2018-Jan-18 06:54N 32°42' W 117°09'0 0.0
2018-Jan-18 06:26N 32°42' W 117°09'0 0.0
2018-Jan-18 05:56N 32°42' W 117°09'  
Track history (hours):
 
Tides and Currents Weather Stations Pressure Air Temp Water Temp Dewpoint Dewpoint Depression Visibility Wind Speed Wind Dir Waves Ship Positions

Master

Owner: Crowley Marine Services, SEATTLE, WA. More information available from US FCC via Universal Licensing System and Coast Guard Vessel Documentation Center.

Last reported at 2018-Jan-22 15:00 UTC. Time now 2018-Jan-22 15:56 UTC.
Position N 33°45' W 118°13'.

Length 30 m; draft 5.3 m.

Type: Tug. MMSI: 366755010.

Date/timePositionNaut miles runAvg speedWind from/ knotsBaromVisibWave heightAir tempDewpointWater temp
2018-Jan-22 15:00N 33°45' W 118°13'0 1.0
2018-Jan-22 14:29N 33°45' W 118°12'0 0.2
2018-Jan-22 14:01N 33°45' W 118°12'1 0.0
2018-Jan-22 01:12N 33°45' W 118°13'0 0.0
2018-Jan-22 01:01N 33°45' W 118°13'1 2.6
2018-Jan-22 00:30N 33°45' W 118°14'0 0.0
2018-Jan-22 00:00N 33°45' W 118°14'2 4.1
2018-Jan-21 23:29N 33°44' W 118°12'1 1.7
2018-Jan-21 23:00N 33°44' W 118°11'32 0.8
2018-Jan-20 04:49N 33°16' W 117°51'3 9.5
2018-Jan-20 04:31N 33°14' W 117°49'5 9.3
2018-Jan-20 04:00N 33°10' W 117°46'5 9.2
2018-Jan-20 03:31N 33°07' W 117°43'5 9.1
2018-Jan-20 03:01N 33°03' W 117°40'5 9.2
2018-Jan-20 02:31N 32°59' W 117°37'5 9.2
2018-Jan-20 02:01N 32°55' W 117°34'5 9.2
2018-Jan-20 01:31N 32°51' W 117°31'5 9.2
2018-Jan-20 01:00N 32°47' W 117°27'4 9.1
2018-Jan-20 00:31N 32°44' W 117°24'13 0.4
2018-Jan-18 19:16N 32°42' W 117°09'0 0.0
2018-Jan-18 18:54N 32°42' W 117°09'0 0.0
2018-Jan-18 10:04N 32°42' W 117°09'0 0.0
2018-Jan-18 09:56N 32°42' W 117°09'0 0.0
2018-Jan-18 06:54N 32°42' W 117°09'0 0.0
2018-Jan-18 06:26N 32°42' W 117°09'0 0.0
2018-Jan-18 05:56N 32°42' W 117°09'  

Dump ship's entire track history